首页
METAR-TAF:

METAR-TAF

机场 :

拉奥罗拉国际机场

瓜地馬拉, 危地马拉

纬度: 14-35N, 经度: 090-31W, 海拔: 1489米

当前天气观测

该预报发布于25分钟前的18:00 UTC
风速10节,风向南转西南
温度 22°C
湿度 73%
气压 1025 hPa
能见度10公里或以上
多云层高于2000英尺
散云层高于8000英尺

METAR: MGGT 061800Z 20010KT 9999 BKN020 SCT080 22/17 Q1025 A3027

时间: 12:25 (18:25 UTC)

预报

该预报发布于1小时和25分钟前的17:00 UTC
预报有效从06日的 18点(UTC)到 07日的 18点(UTC)
风速8节,风向南转西南
能见度10公里或以上
散云层高于1800英尺
多云层高于9000英尺
短暂存在
从 06日的 18点(UTC)到 07日的 03点(UTC)
多云层高于1600英尺
雨, 毛毛雨
几率 30%
从 06日的 20点(UTC)到 06日的 24点(UTC)
能見度: 7000
少量云层高于2500英尺, 积雨云.
雷暴, 雨
成为
从 07日的 00点(UTC)到 07日的 02点(UTC)
风速3节,风向多变
多云层高于1400英尺
几率 30%
从 07日的 08点(UTC)到 07日的 14点(UTC)
能見度: 3000
多云层高于1200英尺
轻雾
成为
从 07日的 14点(UTC)到 07日的 16点(UTC)
少量云层高于1800英尺

TAF: MGGT 061700Z 0618/0718 20008KT 9999 SCT018 BKN090 TX21/0620Z TN15/0712Z TEMPO 0618/0703 RADZ BKN016 PROB30 0620/0624 7000 TSRA FEW025CB BECMG 0700/0702 VRB03KT BKN014 PROB30 0708/0714 3000 BR BKN012 BECMG 0714/0716 FEW018

超过4000个机场的气象观测和天气预报(METAR&TAF报告)。

可查询的气象台以黄色和红色小点在地图上表示。

将鼠标移到小点上方,可查看气象台名称。

然后点击查看天气观测和预报。

如需切换地图:点击带黑十字的绿色按钮放大地图;点击带横线的绿色按钮缩小地图;或者点击绿色箭头查看邻近地区的地图。


METAR-TAF: